createdAt,value
2022-10-28T00:01:26.527Z,101491.72
2022-10-28T00:03:56.897Z,101479.06
2022-10-28T00:06:27.427Z,101480.81
2022-10-28T00:08:57.423Z,101473.34
2022-10-28T00:11:28.325Z,101467.44
2022-10-28T00:13:59.348Z,101468.00
2022-10-28T00:16:30.442Z,101468.31
2022-10-28T00:19:00.469Z,101458.78
2022-10-28T00:21:31.559Z,101459.66
2022-10-28T00:24:01.274Z,101449.88
2022-10-28T00:26:32.130Z,101458.50
2022-10-28T00:29:04.854Z,101463.53
2022-10-28T00:31:35.286Z,101465.78
2022-10-28T00:34:07.934Z,101463.84
2022-10-28T00:36:38.997Z,101464.97
2022-10-28T00:39:13.748Z,101468.06
2022-10-28T00:41:46.021Z,101459.13
2022-10-28T00:44:59.437Z,101472.56
2022-10-28T00:47:52.313Z,101458.28
2022-10-28T00:50:44.113Z,101453.53
2022-10-28T00:53:18.347Z,101447.91
2022-10-28T00:55:48.680Z,101437.19
2022-10-28T00:58:18.616Z,101438.53
2022-10-28T01:00:46.802Z,101436.91
2022-10-28T01:03:16.294Z,101447.28
2022-10-28T01:05:48.014Z,101451.00
2022-10-28T01:08:17.040Z,101457.41
2022-10-28T01:11:19.343Z,101460.81
2022-10-28T01:14:07.416Z,101458.00
2022-10-28T01:16:44.542Z,101466.97
2022-10-28T01:19:57.102Z,101459.97
2022-10-28T01:22:28.365Z,101454.59
2022-10-28T01:25:27.949Z,101449.84
2022-10-28T01:28:24.601Z,101452.63
2022-10-28T01:31:23.430Z,101444.25
2022-10-28T01:33:58.952Z,101443.97
2022-10-28T01:36:37.817Z,101450.16
2022-10-28T01:39:18.998Z,101445.94
2022-10-28T01:41:55.807Z,101445.13
2022-10-28T01:44:31.167Z,101441.47
2022-10-28T01:47:09.760Z,101445.94
2022-10-28T01:49:45.148Z,101444.28
2022-10-28T01:52:17.722Z,101434.16
2022-10-28T01:54:59.617Z,101442.31
2022-10-28T01:57:31.885Z,101434.72
2022-10-28T02:00:01.746Z,101435.28
2022-10-28T02:02:35.643Z,101431.94
2022-10-28T02:05:07.951Z,101430.56
2022-10-28T02:07:36.185Z,101436.13
2022-10-28T02:10:15.377Z,101429.94
2022-10-28T02:12:45.929Z,101435.56
2022-10-28T02:15:30.386Z,101429.41
2022-10-28T02:18:28.008Z,101435.03
2022-10-28T02:21:01.938Z,101435.28
2022-10-28T02:23:43.123Z,101428.03
2022-10-28T02:26:18.664Z,101422.44
2022-10-28T02:28:56.096Z,101421.28
2022-10-28T02:31:30.561Z,101420.16
2022-10-28T02:34:06.797Z,101424.94
2022-10-28T02:36:40.225Z,101424.34
2022-10-28T02:39:09.542Z,101422.69
2022-10-28T02:41:45.345Z,101422.13
2022-10-28T02:44:21.554Z,101421.03
2022-10-28T02:46:52.676Z,101418.19
2022-10-28T02:49:23.501Z,101407.56
2022-10-28T02:51:56.977Z,101413.16
2022-10-28T02:54:30.105Z,101411.75
2022-10-28T02:57:05.515Z,101401.97
2022-10-28T02:59:33.810Z,101409.22
2022-10-28T03:02:02.095Z,101398.31
2022-10-28T03:04:31.956Z,101400.03
2022-10-28T03:07:00.157Z,101395.78
2022-10-28T03:09:28.318Z,101394.66
2022-10-28T03:11:56.472Z,101404.47
2022-10-28T03:14:24.673Z,101394.59
2022-10-28T03:16:52.822Z,101387.94
2022-10-28T03:19:20.983Z,101394.00
2022-10-28T03:21:50.496Z,101383.97
2022-10-28T03:24:18.680Z,101385.69
2022-10-28T03:26:46.854Z,101386.25
2022-10-28T03:29:15.053Z,101382.94
2022-10-28T03:31:43.232Z,101382.63
2022-10-28T03:34:11.408Z,101373.09
2022-10-28T03:36:39.588Z,101377.03
2022-10-28T03:39:09.154Z,101373.13
2022-10-28T03:41:37.308Z,101363.34
2022-10-28T03:44:05.758Z,101371.66
2022-10-28T03:46:35.991Z,101375.31
2022-10-28T03:49:04.899Z,101369.78
2022-10-28T03:51:33.095Z,101373.41
2022-10-28T03:54:01.410Z,101362.41
2022-10-28T03:56:31.006Z,101367.78
2022-10-28T03:58:59.169Z,101371.72
2022-10-28T04:01:27.392Z,101373.03
2022-10-28T04:03:55.618Z,101366.34
2022-10-28T04:06:24.094Z,101367.78
2022-10-28T04:08:52.272Z,101372.53
2022-10-28T04:11:20.462Z,101369.50
2022-10-28T04:13:49.992Z,101371.16
2022-10-28T04:16:18.157Z,101370.03
2022-10-28T04:18:46.317Z,101371.16
2022-10-28T04:21:14.565Z,101370.25
2022-10-28T04:23:42.728Z,101371.16
2022-10-28T04:26:10.973Z,101378.16
2022-10-28T04:28:39.153Z,101378.94
2022-10-28T04:31:10.087Z,101381.78
2022-10-28T04:33:38.258Z,101386.50
2022-10-28T04:36:07.138Z,101396.06
2022-10-28T04:38:35.348Z,101378.44
2022-10-28T04:41:03.861Z,101382.38
2022-10-28T04:43:32.042Z,101381.53
2022-10-28T04:46:05.796Z,101386.47
2022-10-28T04:48:35.813Z,101382.63
2022-10-28T04:51:04.361Z,101381.50
2022-10-28T04:53:32.527Z,101380.97
2022-10-28T04:56:01.327Z,101393.00
2022-10-28T04:58:29.513Z,101390.13
2022-10-28T05:00:57.683Z,101383.09
2022-10-28T05:03:25.883Z,101378.44
2022-10-28T05:05:55.399Z,101371.72
2022-10-28T05:08:23.546Z,101382.31
2022-10-28T05:10:51.696Z,101385.72
2022-10-28T05:13:20.568Z,101378.13
2022-10-28T05:15:49.525Z,101389.34
2022-10-28T05:18:19.052Z,101389.63
2022-10-28T05:20:53.167Z,101390.47
2022-10-28T05:23:27.292Z,101389.38
2022-10-28T05:25:58.999Z,101388.81
2022-10-28T05:28:27.541Z,101386.78
2022-10-28T05:30:56.552Z,101386.28
2022-10-28T05:33:28.017Z,101389.81
2022-10-28T05:35:56.425Z,101389.94
2022-10-28T05:38:27.168Z,101380.66
2022-10-28T05:40:56.495Z,101384.53
2022-10-28T05:43:25.055Z,101383.44
2022-10-28T05:45:57.397Z,101385.16
2022-10-28T05:48:26.299Z,101382.88
2022-10-28T05:50:54.995Z,101382.91
2022-10-28T05:53:23.696Z,101383.47
2022-10-28T05:55:53.749Z,101388.53
2022-10-28T05:58:22.143Z,101393.84
2022-10-28T06:00:50.851Z,101377.75
2022-10-28T06:03:19.307Z,101382.25
2022-10-28T06:05:47.996Z,101377.28
2022-10-28T06:08:16.864Z,101378.44
2022-10-28T06:10:54.575Z,101379.53
2022-10-28T06:13:23.994Z,101388.25
2022-10-28T06:15:53.073Z,101387.09
2022-10-28T06:18:22.381Z,101396.09
2022-10-28T06:20:56.226Z,101390.75
2022-10-28T06:23:27.699Z,101396.63
2022-10-28T06:26:00.250Z,101399.63
2022-10-28T06:28:29.742Z,101396.66
2022-10-28T06:31:02.855Z,101399.72
2022-10-28T06:33:31.742Z,101399.16
2022-10-28T06:36:01.439Z,101400.81
2022-10-28T06:38:30.462Z,101402.50
2022-10-28T06:41:00.390Z,101397.75
2022-10-28T06:43:29.266Z,101405.03
2022-10-28T06:46:02.457Z,101405.03
2022-10-28T06:48:33.007Z,101415.09
2022-10-28T06:51:02.340Z,101416.53
2022-10-28T06:53:31.365Z,101421.56
2022-10-28T06:56:01.707Z,101417.66
2022-10-28T06:58:30.716Z,101421.28
2022-10-28T07:01:04.145Z,101418.50
2022-10-28T07:03:33.060Z,101421.56
2022-10-28T07:06:02.399Z,101420.72
2022-10-28T07:08:31.092Z,101420.16
2022-10-28T07:11:03.523Z,101419.81
2022-10-28T07:13:33.064Z,101423.97
2022-10-28T07:16:03.240Z,101423.16
2022-10-28T07:18:32.342Z,101417.66
2022-10-28T07:21:01.585Z,101418.22
2022-10-28T07:23:31.701Z,101421.31
2022-10-28T07:26:02.127Z,101421.84
2022-10-28T07:28:30.702Z,101431.94
2022-10-28T07:31:02.811Z,101424.66
2022-10-28T07:33:31.370Z,101434.16
2022-10-28T07:36:00.280Z,101424.66
2022-10-28T07:38:30.330Z,101422.38
2022-10-28T07:40:59.413Z,101434.47
2022-10-28T07:43:29.541Z,101432.22
2022-10-28T07:45:59.243Z,101434.19
2022-10-28T07:48:28.264Z,101427.16
2022-10-28T07:50:57.091Z,101428.28
2022-10-28T07:53:28.583Z,101433.03
2022-10-28T07:55:58.789Z,101433.00
2022-10-28T07:58:30.008Z,101438.34
2022-10-28T08:01:03.040Z,101441.13
2022-10-28T08:03:38.609Z,101440.59
2022-10-28T08:06:12.317Z,101448.72
2022-10-28T08:08:41.797Z,101450.38
2022-10-28T08:11:12.327Z,101451.28
2022-10-28T08:13:42.736Z,101446.78
2022-10-28T08:16:11.523Z,101446.50
2022-10-28T08:18:41.506Z,101456.31
2022-10-28T08:21:13.448Z,101446.78
2022-10-28T08:23:46.956Z,101442.56
2022-10-28T08:26:18.084Z,101436.97
2022-10-28T08:28:48.055Z,101436.97
2022-10-28T08:31:16.656Z,101429.41
2022-10-28T08:33:47.395Z,101420.16
2022-10-28T08:36:18.354Z,101422.69
2022-10-28T08:38:47.804Z,101411.50
2022-10-28T08:41:30.368Z,101428.31
2022-10-28T08:44:43.644Z,101423.19
2022-10-28T08:47:23.929Z,101422.09
2022-10-28T08:50:02.042Z,101418.19
2022-10-28T08:52:38.036Z,101430.53
2022-10-28T08:55:13.716Z,101421.31
2022-10-28T08:57:45.683Z,101429.13
2022-10-28T09:00:24.890Z,101424.09
2022-10-28T09:03:08.789Z,101422.09
2022-10-28T09:05:38.097Z,101427.41
2022-10-28T09:08:07.154Z,101413.41
2022-10-28T09:11:01.071Z,101424.63
2022-10-28T09:13:40.417Z,101422.91
2022-10-28T09:16:25.637Z,101410.88
2022-10-28T09:18:56.812Z,101415.84
2022-10-28T09:21:33.159Z,101425.31
2022-10-28T09:24:12.664Z,101422.44
2022-10-28T09:26:55.766Z,101413.41
2022-10-28T09:29:43.314Z,101420.16
2022-10-28T09:32:25.226Z,101416.94
2022-10-28T09:35:02.596Z,101409.09
2022-10-28T09:37:36.553Z,101415.78
2022-10-28T09:40:17.919Z,101414.47
2022-10-28T09:42:55.978Z,101415.22
2022-10-28T09:45:30.045Z,101414.72
2022-10-28T09:48:07.324Z,101417.16
2022-10-28T09:50:44.567Z,101409.03
2022-10-28T09:53:26.601Z,101422.16
2022-10-28T09:55:56.116Z,101423.06
2022-10-28T09:58:25.342Z,101432.13
2022-10-28T10:00:54.012Z,101432.16
2022-10-28T10:03:24.455Z,101425.84
2022-10-28T10:05:57.700Z,101434.66
2022-10-28T10:08:26.756Z,101439.19
2022-10-28T10:11:01.289Z,101437.47
2022-10-28T10:13:38.397Z,101436.22
2022-10-28T10:16:17.424Z,101433.50
2022-10-28T10:18:52.669Z,101426.81
2022-10-28T10:21:45.387Z,101432.16
2022-10-28T10:24:31.781Z,101425.69
2022-10-28T10:27:04.246Z,101429.91
2022-10-28T10:29:37.432Z,101424.31
2022-10-28T10:32:17.384Z,101436.81
2022-10-28T10:35:13.020Z,101431.38
2022-10-28T10:37:47.094Z,101434.63
2022-10-28T10:40:25.436Z,101422.47
2022-10-28T10:43:12.732Z,101430.25
2022-10-28T10:45:43.567Z,101434.78
2022-10-28T10:51:56.945Z,101427.44
2022-10-28T10:54:26.551Z,101424.44
2022-10-28T10:56:55.306Z,101410.31
2022-10-28T10:59:30.954Z,101413.09
2022-10-28T11:02:00.837Z,101407.16
2022-10-28T11:04:30.875Z,101409.94
2022-10-28T11:07:00.799Z,101409.50
2022-10-28T11:09:35.605Z,101406.28
2022-10-28T11:12:17.041Z,101408.56
2022-10-28T11:14:58.965Z,101396.84
2022-10-28T11:17:30.125Z,101401.13
2022-10-28T11:20:02.418Z,101402.31
2022-10-28T11:22:44.651Z,101389.75
2022-10-28T11:25:37.347Z,101384.06
2022-10-28T11:28:45.347Z,101386.13
2022-10-28T11:31:34.829Z,101375.88
2022-10-28T11:34:24.663Z,101373.75
2022-10-28T11:37:09.618Z,101370.97
2022-10-28T11:39:50.533Z,101368.31
2022-10-28T11:42:31.536Z,101363.97
2022-10-28T11:45:11.551Z,101370.00
2022-10-28T11:47:57.949Z,101372.56
2022-10-28T11:50:40.011Z,101368.91
2022-10-28T11:53:50.954Z,101359.50
2022-10-28T11:56:30.541Z,101366.28
2022-10-28T11:59:45.297Z,101361.03
2022-10-28T12:02:38.731Z,101356.19
2022-10-28T12:05:18.518Z,101354.28
2022-10-28T12:08:21.557Z,101338.75
2022-10-28T12:11:09.422Z,101340.59
2022-10-28T12:13:48.699Z,101337.16
2022-10-28T12:16:28.257Z,101342.94
2022-10-28T12:19:03.249Z,101333.97
2022-10-28T12:24:13.692Z,101333.97
2022-10-28T12:26:47.115Z,101329.84
2022-10-28T12:29:24.644Z,101314.25
2022-10-28T12:31:59.468Z,101323.16
2022-10-28T12:37:15.763Z,101313.03
2022-10-28T12:39:52.778Z,101316.44
2022-10-28T12:42:25.859Z,101316.66
2022-10-28T12:45:01.939Z,101326.81
2022-10-28T12:47:43.007Z,101322.84
2022-10-28T12:50:26.713Z,101319.47
2022-10-28T12:53:03.304Z,101322.28
2022-10-28T12:55:39.494Z,101322.22
2022-10-28T12:58:16.544Z,101330.31
2022-10-28T13:00:53.643Z,101324.47
2022-10-28T13:03:22.970Z,101325.31
2022-10-28T13:06:00.889Z,101327.91
2022-10-28T13:09:21.382Z,101329.63
2022-10-28T13:12:34.709Z,101338.44
2022-10-28T13:15:37.236Z,101344.81
2022-10-28T13:18:38.342Z,101351.00
2022-10-28T13:21:19.858Z,101347.00
2022-10-28T13:23:56.682Z,101348.78
2022-10-28T13:26:29.872Z,101353.13
2022-10-28T13:29:03.493Z,101347.88
2022-10-28T13:31:42.147Z,101349.34
2022-10-28T13:34:15.426Z,101355.34
2022-10-28T13:36:46.954Z,101358.25
2022-10-28T13:39:27.277Z,101366.53
2022-10-28T13:42:48.477Z,101370.75
2022-10-28T13:45:53.735Z,101362.34
2022-10-28T13:48:49.815Z,101366.63
2022-10-28T13:51:48.554Z,101366.72
2022-10-28T13:54:29.716Z,101368.06
2022-10-28T13:57:09.927Z,101368.50
2022-10-28T13:59:52.968Z,101373.75
2022-10-28T14:02:36.120Z,101380.00
2022-10-28T14:05:09.956Z,101381.47
2022-10-28T14:07:52.188Z,101378.97
2022-10-28T14:10:27.612Z,101380.53
2022-10-28T14:13:01.343Z,101369.44
2022-10-28T14:15:33.300Z,101387.41
2022-10-28T14:18:16.034Z,101398.88
2022-10-28T14:21:01.836Z,101415.91
2022-10-28T14:24:15.896Z,101405.59
2022-10-28T14:27:41.923Z,101408.13
2022-10-28T14:30:24.519Z,101410.50
2022-10-28T14:33:23.948Z,101406.34
2022-10-28T14:36:31.562Z,101417.19
2022-10-28T14:39:52.089Z,101424.72
2022-10-28T14:42:43.587Z,101430.53
2022-10-28T14:45:29.440Z,101433.53
2022-10-28T14:48:39.063Z,101430.94
2022-10-28T14:51:15.794Z,101428.56
2022-10-28T14:53:46.676Z,101430.47
2022-10-28T14:56:24.912Z,101434.22
2022-10-28T14:58:58.894Z,101436.09
2022-10-28T15:01:35.783Z,101443.72
2022-10-28T15:04:14.103Z,101450.19
2022-10-28T15:06:46.861Z,101458.81
2022-10-28T15:09:22.229Z,101465.75
2022-10-28T15:11:57.342Z,101460.16
2022-10-28T15:14:36.870Z,101472.66
2022-10-28T15:17:15.621Z,101458.34
2022-10-28T15:19:46.050Z,101469.63
2022-10-28T15:22:19.988Z,101479.34
2022-10-28T15:25:00.314Z,101472.09
2022-10-28T15:27:33.957Z,101461.38
2022-10-28T15:30:03.585Z,101470.72
2022-10-28T15:32:37.083Z,101469.84
2022-10-28T15:35:45.076Z,101481.97
2022-10-28T15:38:40.035Z,101477.28
2022-10-28T15:41:46.454Z,101464.66
2022-10-28T15:44:35.029Z,101473.06
2022-10-28T15:47:20.034Z,101463.56
2022-10-28T15:50:07.671Z,101471.06
2022-10-28T15:52:42.373Z,101477.66
2022-10-28T15:55:41.430Z,101478.38
2022-10-28T15:58:37.461Z,101486.25
2022-10-28T16:01:32.189Z,101487.84
2022-10-28T16:04:02.336Z,101496.28
2022-10-28T16:06:33.953Z,101486.09
2022-10-28T16:09:29.464Z,101497.03
2022-10-28T16:12:02.397Z,101501.44
2022-10-28T16:14:37.832Z,101513.31
2022-10-28T16:17:16.827Z,101513.91
2022-10-28T16:19:53.464Z,101532.25
2022-10-28T16:22:24.502Z,101518.03
2022-10-28T16:24:54.911Z,101518.63
2022-10-28T16:27:25.732Z,101514.44
2022-10-28T16:29:54.673Z,101522.41
2022-10-28T16:32:30.773Z,101533.22
2022-10-28T16:35:01.113Z,101528.78
2022-10-28T16:37:32.482Z,101528.63
2022-10-28T16:40:01.215Z,101523.13
2022-10-28T16:42:30.175Z,101524.38
2022-10-28T16:44:58.841Z,101528.38
2022-10-28T16:47:29.446Z,101542.06
2022-10-28T16:50:01.080Z,101537.16
2022-10-28T16:52:32.688Z,101539.53
2022-10-28T16:55:01.494Z,101536.34
2022-10-28T16:57:38.835Z,101543.22
2022-10-28T17:00:11.657Z,101541.59
2022-10-28T17:02:42.889Z,101537.16
2022-10-28T17:05:20.485Z,101547.16
2022-10-28T17:07:49.403Z,101546.38
2022-10-28T17:10:19.968Z,101547.22
2022-10-28T17:12:49.110Z,101560.19
2022-10-28T17:15:17.873Z,101558.16
2022-10-28T17:17:51.571Z,101569.28
2022-10-28T17:20:26.696Z,101571.28
2022-10-28T17:22:55.756Z,101578.91
2022-10-28T17:25:24.713Z,101581.47
2022-10-28T17:27:54.539Z,101582.13
2022-10-28T17:30:25.734Z,101588.31
2022-10-28T17:32:56.475Z,101581.84
2022-10-28T17:35:27.596Z,101575.09
2022-10-28T17:37:57.685Z,101580.47
2022-10-28T17:40:26.931Z,101588.41
2022-10-28T17:42:58.884Z,101594.06
2022-10-28T17:45:27.577Z,101591.41
2022-10-28T17:47:59.770Z,101588.41
2022-10-28T17:50:28.497Z,101587.25
2022-10-28T17:52:57.375Z,101584.19
2022-10-28T17:55:27.635Z,101585.03
2022-10-28T17:57:56.945Z,101588.16
2022-10-28T18:00:25.879Z,101586.88
2022-10-28T18:02:58.639Z,101587.13
2022-10-28T18:05:27.530Z,101588.28
2022-10-28T18:07:57.467Z,101587.16
2022-10-28T18:10:26.586Z,101598.13
2022-10-28T18:12:55.641Z,101602.94
2022-10-28T18:15:24.562Z,101606.31
2022-10-28T18:17:53.136Z,101606.25
2022-10-28T18:20:24.310Z,101610.81
2022-10-28T18:22:53.470Z,101604.06
2022-10-28T18:25:22.343Z,101604.66
2022-10-28T18:27:50.870Z,101616.47
2022-10-28T18:30:19.810Z,101614.75
2022-10-28T18:32:48.409Z,101619.03
2022-10-28T18:35:17.197Z,101611.41
2022-10-28T18:37:47.931Z,101612.53
2022-10-28T18:40:16.511Z,101618.47
2022-10-28T18:42:44.914Z,101623.84
2022-10-28T18:45:14.151Z,101632.28
2022-10-28T18:47:44.740Z,101630.31
2022-10-28T18:50:13.528Z,101634.53
2022-10-28T18:52:42.105Z,101632.56
2022-10-28T18:55:12.741Z,101638.50
2022-10-28T18:57:41.316Z,101639.91
2022-10-28T19:00:19.585Z,101643.56
2022-10-28T19:02:48.758Z,101645.59
2022-10-28T19:05:17.376Z,101642.78
2022-10-28T19:07:46.069Z,101647.56
2022-10-28T19:10:16.803Z,101651.50
2022-10-28T19:12:52.742Z,101657.44
2022-10-28T19:15:21.696Z,101654.09
2022-10-28T19:17:50.206Z,101661.09
2022-10-28T19:20:18.948Z,101657.75
2022-10-28T19:22:47.491Z,101660.25
2022-10-28T19:25:17.568Z,101664.78
2022-10-28T19:27:46.457Z,101654.94
2022-10-28T19:30:15.927Z,101656.34
2022-10-28T19:32:44.830Z,101670.34
2022-10-28T19:35:13.396Z,101676.81
2022-10-28T19:37:43.426Z,101669.19
2022-10-28T19:40:12.520Z,101674.88
2022-10-28T19:42:42.763Z,101677.63
2022-10-28T19:45:12.278Z,101682.47
2022-10-28T19:47:41.683Z,101683.00
2022-10-28T19:50:11.281Z,101687.28
2022-10-28T19:52:39.736Z,101686.09
2022-10-28T19:55:14.499Z,101686.09
2022-10-28T19:57:47.737Z,101696.25
2022-10-28T20:00:20.049Z,101690.34
2022-10-28T20:02:49.319Z,101696.25
2022-10-28T20:05:17.848Z,101698.78
2022-10-28T20:07:46.210Z,101691.50
2022-10-28T20:10:16.439Z,101691.56
2022-10-28T20:12:46.722Z,101692.66
2022-10-28T20:15:17.635Z,101701.97
2022-10-28T20:17:46.703Z,101703.59
2022-10-28T20:20:15.933Z,101706.41
2022-10-28T20:22:44.549Z,101713.75
2022-10-28T20:25:14.004Z,101710.38
2022-10-28T20:27:42.806Z,101716.56
2022-10-28T20:30:15.840Z,101714.63
2022-10-28T20:32:44.800Z,101714.91
2022-10-28T20:35:19.161Z,101718.59
2022-10-28T20:37:47.896Z,101724.50
2022-10-28T20:40:16.970Z,101724.53
2022-10-28T20:42:45.533Z,101724.25
2022-10-28T20:45:18.563Z,101717.00
2022-10-28T20:47:47.142Z,101723.16
2022-10-28T20:50:15.852Z,101731.31
2022-10-28T20:52:44.686Z,101733.00
2022-10-28T20:55:13.930Z,101725.34
2022-10-28T20:57:47.072Z,101738.88
2022-10-28T21:00:23.345Z,101743.97
2022-10-28T21:02:57.313Z,101755.19
2022-10-28T21:05:26.734Z,101753.50
2022-10-28T21:07:57.306Z,101749.88
2022-10-28T21:10:26.518Z,101748.19
2022-10-28T21:12:55.289Z,101746.75
2022-10-28T21:15:25.241Z,101746.75
2022-10-28T21:17:54.057Z,101754.63
2022-10-28T21:20:23.376Z,101765.84
2022-10-28T21:22:52.779Z,101767.31
2022-10-28T21:25:24.549Z,101767.03
2022-10-28T21:27:53.074Z,101765.63
2022-10-28T21:30:22.036Z,101768.72
2022-10-28T21:32:52.361Z,101766.47
2022-10-28T21:35:23.588Z,101773.50
2022-10-28T21:37:52.463Z,101774.63
2022-10-28T21:40:21.642Z,101771.50
2022-10-28T21:42:52.432Z,101770.94
2022-10-28T21:45:21.797Z,101774.88
2022-10-28T21:47:55.015Z,101776.03
2022-10-28T21:50:24.394Z,101769.53
2022-10-28T21:55:45.683Z,101778.84
2022-10-28T21:58:16.106Z,101771.28
2022-10-28T22:00:45.089Z,101768.44
2022-10-28T22:03:16.353Z,101772.66
2022-10-28T22:05:52.119Z,101766.47
2022-10-28T22:08:20.707Z,101768.72
2022-10-28T22:10:49.485Z,101760.00
2022-10-28T22:13:18.876Z,101765.63
2022-10-28T22:15:47.764Z,101760.00
2022-10-28T22:18:17.951Z,101755.22
2022-10-28T22:20:46.489Z,101758.59
2022-10-28T22:23:15.193Z,101773.22
2022-10-28T22:25:43.648Z,101773.78
2022-10-28T22:28:14.303Z,101769.53
2022-10-28T22:30:44.817Z,101772.09
2022-10-28T22:33:13.362Z,101763.66
2022-10-28T22:35:43.569Z,101771.25
2022-10-28T22:38:11.878Z,101766.75
2022-10-28T22:40:40.225Z,101773.53
2022-10-28T22:43:09.086Z,101784.44
2022-10-28T22:45:37.957Z,101777.47
2022-10-28T22:48:07.520Z,101782.81
2022-10-28T22:50:36.307Z,101780.56
2022-10-28T22:53:06.090Z,101775.78
2022-10-28T22:55:34.461Z,101781.69
2022-10-28T22:58:03.006Z,101771.59
2022-10-28T23:00:31.301Z,101778.88
2022-10-28T23:03:00.171Z,101768.19
2022-10-28T23:05:29.119Z,101768.19
2022-10-28T23:07:59.720Z,101776.34
2022-10-28T23:10:30.563Z,101774.97
2022-10-28T23:13:00.876Z,101773.00
2022-10-28T23:15:32.145Z,101776.66
2022-10-28T23:18:00.912Z,101780.56
2022-10-28T23:20:30.503Z,101778.06
2022-10-28T23:23:02.050Z,101785.63
2022-10-28T23:25:31.964Z,101786.47
2022-10-28T23:28:00.724Z,101787.88
2022-10-28T23:30:29.274Z,101789.00
2022-10-28T23:32:59.256Z,101793.22
2022-10-28T23:35:27.560Z,101790.13
2022-10-28T23:37:56.317Z,101803.31
2022-10-28T23:40:25.260Z,101799.13
2022-10-28T23:42:55.818Z,101800.25
2022-10-28T23:45:24.579Z,101797.16
2022-10-28T23:47:53.138Z,101791.84
2022-10-28T23:50:22.577Z,101791.84
2022-10-28T23:52:58.622Z,101790.41
2022-10-28T23:55:28.038Z,101790.69
2022-10-28T23:57:59.407Z,101787.34
